Skip to main content.
 TIME   TEMPERATURE   WINDSPEED   DIRECTION   HUMIDITY   BAROMETER   RAINFALL 
6:26 12.5°C (54.5°F) 0.0 kmh (0.0 mph) WNW 68% 1024.0hPa (30.24 inHg) 0.0mm (0.00 in.)
5:26 12.6°C (54.7 °F) 3.7 kmh (2.3 mph) NE 68% 1023.0hPa (30.21 inHg) 0.0mm (0.00 in.)
4:26 12.8°C (55.0 °F) 14.8 kmh (9.2 mph) W 68% 1023.0hPa (30.21 inHg) 0.0mm (0.00 in.)
3:26 13.0°C (55.4 °F) 13.0 kmh (8.1 mph) NW 67% 1023.0hPa (30.21 inHg) 0.0mm (0.00 in.)
2:26 13.0°C (55.4 °F) 18.5 kmh (11.5 mph) WNW 68% 1022.0hPa (30.18 inHg) 0.0mm (0.00 in.)
1:26 13.1°C (55.6 °F) 16.7 kmh (10.4 mph) WNW 70% 1022.0hPa (30.18 inHg) 0.0mm (0.00 in.)
0:26 13.1°C (55.6 °F) 18.5 kmh (11.5 mph) WNW 72% 1022.0hPa (30.18 inHg) 0.0mm (0.00 in.)
23:26 13.4°C (56.1 °F) 29.6 kmh (18.4 mph) WNW 74% 1021.0hPa (30.15 inHg) 0.0mm (0.00 in.)
22:26 13.7°C (56.7 °F) 22.2 kmh (13.8 mph) NW 75% 1021.0hPa (30.15 inHg) 0.0mm (0.00 in.)
21:26 15.1°C (59.2 °F) 22.2 kmh (13.8 mph) WNW 75% 1020.0hPa (30.12 inHg) 0.0mm (0.00 in.)
20:26 15.4°C (59.7 °F) 20.4 kmh (12.7 mph) NE 74% 1019.0hPa (30.09 inHg) 0.0mm (0.00 in.)
19:26 15.4°C (59.7 °F) 24.1 kmh (15.0 mph) NE 74% 1018.0hPa (30.06 inHg) 0.0mm (0.00 in.)
18:26 15.4°C (59.7 °F) 22.2 kmh (13.8 mph) NNE 73% 1018.0hPa (30.06 inHg) 0.0mm (0.00 in.)
17:18 15.5°C (59.9 °F) 18.5 kmh (11.5 mph) NNE 72% 1017.0hPa (30.03 inHg) 0.0mm (0.00 in.)
16:08 15.7°C (60.3 °F) 31.5 kmh (19.6 mph) NNE 71% 1016.0hPa (30.00 inHg) 0.0mm (0.00 in.)
15:08 15.9°C (60.6 °F) 25.9 kmh (16.1 mph) NE 71% 1016.0hPa (30.00 inHg) 0.0mm (0.00 in.)
14:08 16.2°C (61.2 °F) 27.8 kmh (17.3 mph) NE 72% 1015.0hPa (29.97 inHg) 0.0mm (0.00 in.)
13:08 16.1°C (61.0 °F) 29.6 kmh (18.4 mph) NNE 72% 1016.0hPa (30.00 inHg) 0.0mm (0.00 in.)
12:01 16.1°C (61.0 °F) 25.9 kmh (16.1 mph) NNE 73% 1016.0hPa (30.00 inHg) 0.0mm (0.00 in.)
11:01 15.7°C (60.3 °F) 33.3 kmh (20.7 mph) N 73% 1016.0hPa (30.00 inHg) 0.0mm (0.00 in.)
10:01 15.5°C (59.9 °F) 27.8 kmh (17.3 mph) NNE 74% 1016.0hPa (30.00 inHg) 0.0mm (0.00 in.)
8:46 15.0°C (59.0 °F) 20.4 kmh (12.7 mph) NNW 74% 1015.0hPa (29.97 inHg) 0.0mm (0.00 in.)
7:46 14.9°C (58.8 °F) 18.5 kmh (11.5 mph) N 75% 1015.0hPa (29.97 inHg) 0.0mm (0.00 in.)
6:46 14.8°C (58.6 °F) 25.9 kmh (16.1 mph) NNE 75% 1015.0hPa (29.97 inHg) 0.0mm (0.00 in.)